createdAt,value
2022-11-06T00:01:07.315Z,97420.91
2022-11-06T00:03:34.546Z,97423.63
2022-11-06T00:06:25.458Z,97428.94
2022-11-06T00:08:52.299Z,97426.22
2022-11-06T00:11:18.937Z,97421.88
2022-11-06T00:13:47.622Z,97419.72
2022-11-06T00:16:14.925Z,97410.81
2022-11-06T00:18:42.167Z,97413.34
2022-11-06T00:21:11.595Z,97422.13
2022-11-06T00:23:38.678Z,97420.56
2022-11-06T00:26:09.918Z,97420.38
2022-11-06T00:28:36.984Z,97415.63
2022-11-06T00:31:08.750Z,97412.75
2022-11-06T00:33:35.814Z,97405.13
2022-11-06T00:36:06.024Z,97390.59
2022-11-06T00:38:33.290Z,97398.78
2022-11-06T00:41:04.864Z,97395.19
2022-11-06T00:43:33.091Z,97398.47
2022-11-06T00:46:04.446Z,97388.50
2022-11-06T00:48:31.336Z,97394.41
2022-11-06T00:51:17.337Z,97394.41
2022-11-06T00:53:45.100Z,97399.16
2022-11-06T00:56:17.405Z,97401.88
2022-11-06T00:58:45.122Z,97396.97
2022-11-06T01:01:15.920Z,97392.66
2022-11-06T01:03:43.982Z,97398.25
2022-11-06T01:06:16.473Z,97394.66
2022-11-06T01:08:43.517Z,97393.94
2022-11-06T01:11:16.214Z,97397.06
2022-11-06T01:13:43.697Z,97386.16
2022-11-06T01:16:13.856Z,97390.00
2022-11-06T01:18:42.026Z,97387.84
2022-11-06T01:21:14.739Z,97386.22
2022-11-06T01:23:42.222Z,97395.72
2022-11-06T01:26:11.062Z,97389.38
2022-11-06T01:28:39.054Z,97383.03
2022-11-06T01:31:08.345Z,97381.59
2022-11-06T01:33:35.262Z,97380.16
2022-11-06T01:36:02.004Z,97366.50
2022-11-06T01:38:28.769Z,97352.13
2022-11-06T01:40:55.593Z,97343.75
2022-11-06T01:43:24.908Z,97321.78
2022-11-06T01:45:54.062Z,97317.63
2022-11-06T01:48:24.802Z,97313.44
2022-11-06T01:50:56.686Z,97309.69
2022-11-06T01:53:24.224Z,97312.97
2022-11-06T01:55:54.173Z,97310.09
2022-11-06T01:58:23.198Z,97312.09
2022-11-06T02:00:50.260Z,97316.69
2022-11-06T02:03:17.132Z,97320.53
2022-11-06T02:05:44.114Z,97324.22
2022-11-06T02:08:15.119Z,97314.28
2022-11-06T02:10:43.031Z,97308.81
2022-11-06T02:13:43.729Z,97289.00
2022-11-06T02:16:38.854Z,97290.28
2022-11-06T02:19:34.409Z,97286.84
2022-11-06T02:22:19.841Z,97290.13
2022-11-06T02:25:06.101Z,97286.53
2022-11-06T02:27:33.787Z,97284.91
2022-11-06T02:30:07.490Z,97280.59
2022-11-06T02:32:45.530Z,97279.88
2022-11-06T02:35:32.541Z,97272.94
2022-11-06T02:38:04.259Z,97270.97
2022-11-06T02:40:33.414Z,97269.50
2022-11-06T02:43:04.089Z,97274.94
2022-11-06T02:45:34.489Z,97264.59
2022-11-06T02:48:02.394Z,97270.22
2022-11-06T02:50:34.745Z,97270.63
2022-11-06T02:53:04.343Z,97265.19
2022-11-06T02:55:49.823Z,97275.38
2022-11-06T02:58:39.180Z,97271.22
2022-11-06T03:01:14.538Z,97264.28
2022-11-06T03:03:47.311Z,97260.13
2022-11-06T03:06:19.772Z,97245.75
2022-11-06T03:08:54.839Z,97237.56
2022-11-06T03:11:26.137Z,97241.59
2022-11-06T03:14:20.805Z,97235.97
2022-11-06T03:17:00.242Z,97230.38
2022-11-06T03:19:34.208Z,97230.75
2022-11-06T03:22:03.181Z,97232.78
2022-11-06T03:24:34.529Z,97240.66
2022-11-06T03:27:08.457Z,97237.75
2022-11-06T03:29:41.303Z,97243.78
2022-11-06T03:32:10.188Z,97251.25
2022-11-06T03:34:42.323Z,97247.47
2022-11-06T03:37:18.618Z,97243.13
2022-11-06T03:39:54.649Z,97233.50
2022-11-06T03:42:24.502Z,97227.19
2022-11-06T03:45:00.977Z,97231.94
2022-11-06T03:47:34.502Z,97226.31
2022-11-06T03:50:08.247Z,97232.31
2022-11-06T03:52:46.024Z,97240.34
2022-11-06T03:55:18.783Z,97240.16
2022-11-06T03:57:52.715Z,97237.13
2022-11-06T04:00:20.541Z,97233.53
2022-11-06T04:03:09.227Z,97240.97
2022-11-06T04:05:44.718Z,97242.81
2022-11-06T04:08:30.498Z,97248.13
2022-11-06T04:11:18.198Z,97243.22
2022-11-06T04:14:04.430Z,97237.59
2022-11-06T04:16:35.363Z,97230.72
2022-11-06T04:19:02.722Z,97225.13
2022-11-06T04:21:47.491Z,97225.66
2022-11-06T04:24:58.274Z,97224.94
2022-11-06T04:27:57.301Z,97224.06
2022-11-06T04:30:24.216Z,97226.06
2022-11-06T04:33:25.798Z,97228.63
2022-11-06T04:36:04.624Z,97229.03
2022-11-06T04:38:31.249Z,97217.25
2022-11-06T04:41:03.483Z,97201.47
2022-11-06T04:43:33.172Z,97196.56
2022-11-06T04:46:01.255Z,97195.84
2022-11-06T04:48:28.381Z,97202.56
2022-11-06T04:50:59.053Z,97207.16
2022-11-06T04:53:25.698Z,97204.91
2022-11-06T04:55:55.190Z,97203.69
2022-11-06T04:58:22.168Z,97198.63
2022-11-06T05:00:50.656Z,97195.75
2022-11-06T05:03:19.043Z,97188.13
2022-11-06T05:05:45.797Z,97183.25
2022-11-06T05:08:20.042Z,97173.50
2022-11-06T05:10:47.473Z,97166.03
2022-11-06T05:13:15.133Z,97164.56
2022-11-06T05:15:42.427Z,97163.13
2022-11-06T05:18:09.107Z,97149.38
2022-11-06T05:20:36.106Z,97139.75
2022-11-06T05:23:02.825Z,97128.16
2022-11-06T05:25:33.762Z,97125.25
2022-11-06T05:28:01.292Z,97108.75
2022-11-06T05:30:28.081Z,97096.97
2022-11-06T05:32:55.180Z,97085.34
2022-11-06T05:35:21.887Z,97084.81
2022-11-06T05:37:48.680Z,97081.91
2022-11-06T05:40:15.513Z,97077.03
2022-11-06T05:42:44.073Z,97069.97
2022-11-06T05:45:11.684Z,97060.94
2022-11-06T05:47:41.809Z,97049.34
2022-11-06T05:50:10.086Z,97050.63
2022-11-06T05:52:36.914Z,97043.16
2022-11-06T05:55:04.934Z,97026.13
2022-11-06T05:57:32.722Z,97028.66
2022-11-06T05:59:59.809Z,97028.09
2022-11-06T06:02:26.728Z,97035.38
2022-11-06T06:04:53.576Z,97036.69
2022-11-06T06:07:20.354Z,97030.50
2022-11-06T06:09:47.203Z,97037.25
2022-11-06T06:12:13.880Z,97028.19
2022-11-06T06:14:40.642Z,97034.03
2022-11-06T06:17:07.469Z,97031.16
2022-11-06T06:19:34.289Z,97020.84
2022-11-06T06:22:00.934Z,97017.38
2022-11-06T06:24:27.768Z,97007.75
2022-11-06T06:26:54.462Z,97029.53
2022-11-06T06:29:21.242Z,97041.72
2022-11-06T06:31:49.927Z,97046.44
2022-11-06T06:34:16.702Z,97051.88
2022-11-06T06:36:43.350Z,97064.78
2022-11-06T06:39:10.347Z,97066.78
2022-11-06T06:41:37.152Z,97064.78
2022-11-06T06:44:03.959Z,97057.19
2022-11-06T06:46:30.649Z,97062.09
2022-11-06T06:48:57.364Z,97057.50
2022-11-06T06:51:24.389Z,97065.00
2022-11-06T06:53:51.224Z,97062.00
2022-11-06T06:56:17.929Z,97063.53
2022-11-06T06:58:44.653Z,97062.88
2022-11-06T07:01:11.452Z,97060.19
2022-11-06T07:03:38.591Z,97053.72
2022-11-06T07:06:06.189Z,97053.97
2022-11-06T07:08:33.218Z,97063.00
2022-11-06T07:11:04.577Z,97062.63
2022-11-06T07:13:35.920Z,97057.25
2022-11-06T07:16:08.416Z,97058.88
2022-11-06T07:18:36.085Z,97071.16
2022-11-06T07:21:07.443Z,97081.31
2022-11-06T07:23:37.912Z,97079.66
2022-11-06T07:26:05.309Z,97082.72
2022-11-06T07:28:32.565Z,97085.22
2022-11-06T07:31:03.706Z,97087.59
2022-11-06T07:33:30.685Z,97089.94
2022-11-06T07:36:04.908Z,97091.00
2022-11-06T07:38:34.707Z,97087.91
2022-11-06T07:41:03.379Z,97085.22
2022-11-06T07:43:31.091Z,97074.72
2022-11-06T07:46:02.343Z,97080.69
2022-11-06T07:48:29.970Z,97076.66
2022-11-06T07:50:56.980Z,97074.25
2022-11-06T07:53:24.528Z,97064.28
2022-11-06T07:55:52.356Z,97069.72
2022-11-06T07:58:19.869Z,97061.88
2022-11-06T08:00:51.498Z,97046.06
2022-11-06T08:03:18.590Z,97029.03
2022-11-06T08:05:45.543Z,97025.53
2022-11-06T08:08:13.004Z,97026.47
2022-11-06T08:10:40.658Z,97015.34
2022-11-06T08:13:07.510Z,97016.13
2022-11-06T08:15:34.340Z,97010.44
2022-11-06T08:18:01.358Z,97008.13
2022-11-06T08:20:28.010Z,96996.97
2022-11-06T08:22:59.090Z,96992.94
2022-11-06T08:25:26.025Z,96984.00
2022-11-06T08:27:58.573Z,96972.88
2022-11-06T08:30:26.285Z,96959.94
2022-11-06T08:32:53.426Z,96947.00
2022-11-06T08:35:20.349Z,96957.59
2022-11-06T08:37:47.176Z,96945.91
2022-11-06T08:40:14.018Z,96937.19
2022-11-06T08:42:40.861Z,96925.00
2022-11-06T08:45:08.256Z,96921.34
2022-11-06T08:47:34.984Z,96933.53
2022-11-06T08:50:01.786Z,96937.06
2022-11-06T08:52:33.751Z,96944.47
2022-11-06T08:55:00.960Z,96938.88
2022-11-06T08:57:28.222Z,96938.53
2022-11-06T08:59:54.908Z,96938.41
2022-11-06T09:02:21.781Z,96927.81
2022-11-06T09:04:48.522Z,96912.91
2022-11-06T09:07:16.058Z,96912.84
2022-11-06T09:09:42.819Z,96910.53
2022-11-06T09:12:09.497Z,96918.88
2022-11-06T09:14:36.703Z,96893.94
2022-11-06T09:17:03.417Z,96887.69
2022-11-06T09:19:30.277Z,96885.19
2022-11-06T09:21:56.920Z,96891.84
2022-11-06T09:24:43.191Z,96894.69
2022-11-06T09:27:10.385Z,96881.03
2022-11-06T09:29:40.832Z,96870.59
2022-11-06T09:32:07.798Z,96869.16
2022-11-06T09:34:34.450Z,96857.00
2022-11-06T09:37:04.368Z,96863.59
2022-11-06T09:39:31.077Z,96862.91
2022-11-06T09:42:01.409Z,96862.63
2022-11-06T09:44:34.331Z,96861.31
2022-11-06T09:47:05.280Z,96861.22
2022-11-06T09:49:47.527Z,96852.03
2022-11-06T09:52:36.050Z,96840.97
2022-11-06T09:55:10.052Z,96841.09
2022-11-06T09:57:41.613Z,96830.03
2022-11-06T10:00:12.611Z,96822.09
2022-11-06T10:02:45.849Z,96815.31
2022-11-06T10:05:32.753Z,96814.44
2022-11-06T10:08:02.308Z,96809.66
2022-11-06T10:10:36.098Z,96797.38
2022-11-06T10:13:02.835Z,96797.75
2022-11-06T10:15:54.230Z,96797.34
2022-11-06T10:18:36.285Z,96802.66
2022-11-06T10:21:29.902Z,96801.28
2022-11-06T10:24:05.259Z,96787.28
2022-11-06T10:26:37.969Z,96799.06
2022-11-06T10:29:16.515Z,96790.63
2022-11-06T10:32:01.483Z,96788.72
2022-11-06T10:34:30.831Z,96785.88
2022-11-06T10:37:37.714Z,96784.94
2022-11-06T10:40:06.172Z,96792.84
2022-11-06T10:42:38.371Z,96782.56
2022-11-06T10:45:14.781Z,96784.03
2022-11-06T10:47:52.665Z,96766.50
2022-11-06T10:50:19.596Z,96761.03
2022-11-06T10:52:57.414Z,96759.53
2022-11-06T10:55:53.703Z,96755.28
2022-11-06T10:58:24.937Z,96753.63
2022-11-06T11:01:00.408Z,96751.59
2022-11-06T11:03:34.514Z,96738.34
2022-11-06T11:06:04.261Z,96733.94
2022-11-06T11:08:31.201Z,96734.34
2022-11-06T11:11:15.685Z,96733.50
2022-11-06T11:13:47.401Z,96727.22
2022-11-06T11:16:27.483Z,96729.69
2022-11-06T11:18:54.221Z,96736.28
2022-11-06T11:21:27.979Z,96723.28
2022-11-06T11:24:00.777Z,96712.09
2022-11-06T11:26:29.744Z,96723.66
2022-11-06T11:28:59.146Z,96723.16
2022-11-06T11:31:31.455Z,96722.94
2022-11-06T11:34:01.438Z,96722.94
2022-11-06T11:37:08.235Z,96734.47
2022-11-06T11:39:37.365Z,96726.97
2022-11-06T11:42:30.521Z,96730.31
2022-11-06T11:45:09.822Z,96729.47
2022-11-06T11:47:38.207Z,96729.47
2022-11-06T11:50:26.546Z,96716.28
2022-11-06T11:53:10.495Z,96716.00
2022-11-06T11:55:46.200Z,96714.94
2022-11-06T11:58:18.214Z,96708.13
2022-11-06T12:00:59.027Z,96693.94
2022-11-06T12:03:28.761Z,96692.03
2022-11-06T12:06:06.640Z,96673.19
2022-11-06T12:08:33.802Z,96666.81
2022-11-06T12:11:05.162Z,96654.91
2022-11-06T12:13:31.921Z,96651.66
2022-11-06T12:16:14.536Z,96652.25
2022-11-06T12:18:45.235Z,96655.56
2022-11-06T12:21:12.006Z,96657.53
2022-11-06T12:23:51.394Z,96654.06
2022-11-06T12:26:35.408Z,96653.41
2022-11-06T12:29:25.309Z,96662.78
2022-11-06T12:32:10.162Z,96652.13
2022-11-06T12:34:44.286Z,96644.94
2022-11-06T12:37:16.494Z,96644.75
2022-11-06T12:39:45.191Z,96638.28
2022-11-06T12:42:12.876Z,96638.34
2022-11-06T12:44:39.742Z,96629.91
2022-11-06T12:47:39.466Z,96627.78
2022-11-06T12:50:29.136Z,96635.78
2022-11-06T12:53:16.244Z,96627.56
2022-11-06T12:55:58.806Z,96631.59
2022-11-06T12:59:06.067Z,96623.97
2022-11-06T13:01:43.457Z,96608.69
2022-11-06T13:04:10.815Z,96613.97
2022-11-06T13:06:58.925Z,96612.13
2022-11-06T13:09:35.533Z,96616.13
2022-11-06T13:12:12.993Z,96615.56
2022-11-06T13:14:59.283Z,96620.72
2022-11-06T13:17:35.543Z,96610.13
2022-11-06T13:20:04.211Z,96614.91
2022-11-06T13:22:39.816Z,96615.81
2022-11-06T13:25:32.888Z,96616.22
2022-11-06T13:28:04.654Z,96610.06
2022-11-06T13:30:32.250Z,96618.75
2022-11-06T13:33:07.812Z,96639.97
2022-11-06T13:35:40.113Z,96637.59
2022-11-06T13:38:07.682Z,96630.94
2022-11-06T13:40:39.923Z,96625.41
2022-11-06T13:43:12.378Z,96613.31
2022-11-06T13:45:49.374Z,96624.34
2022-11-06T13:48:44.158Z,96618.09
2022-11-06T13:51:36.217Z,96615.19
2022-11-06T13:54:13.927Z,96615.38
2022-11-06T13:57:24.932Z,96627.66
2022-11-06T14:00:03.396Z,96634.38
2022-11-06T14:02:45.377Z,96630.41
2022-11-06T14:05:27.139Z,96626.97
2022-11-06T14:08:01.643Z,96623.59
2022-11-06T14:10:37.212Z,96622.25
2022-11-06T14:13:05.372Z,96628.19
2022-11-06T14:15:35.593Z,96635.38
2022-11-06T14:18:02.489Z,96632.84
2022-11-06T14:20:39.586Z,96631.63
2022-11-06T14:23:31.194Z,96612.16
2022-11-06T14:26:03.573Z,96626.72
2022-11-06T14:28:33.165Z,96617.22
2022-11-06T14:31:17.957Z,96621.44
2022-11-06T14:33:51.511Z,96620.16
2022-11-06T14:36:24.417Z,96612.38
2022-11-06T14:38:52.520Z,96604.00
2022-11-06T14:41:34.670Z,96612.16
2022-11-06T14:44:18.857Z,96610.00
2022-11-06T14:46:50.755Z,96600.03
2022-11-06T14:49:42.268Z,96601.69
2022-11-06T14:52:12.717Z,96595.72
2022-11-06T14:54:42.011Z,96604.19
2022-11-06T14:57:15.429Z,96588.84
2022-11-06T14:59:43.084Z,96590.53
2022-11-06T15:02:21.098Z,96610.78
2022-11-06T15:05:00.027Z,96603.88
2022-11-06T15:10:42.713Z,96608.16
2022-11-06T15:13:13.195Z,96609.09
2022-11-06T15:15:42.107Z,96618.63
2022-11-06T15:18:15.207Z,96615.41
2022-11-06T15:20:42.734Z,96610.66
2022-11-06T15:23:25.387Z,96620.28
2022-11-06T15:26:02.509Z,96607.06
2022-11-06T15:28:34.354Z,96602.06
2022-11-06T15:31:33.557Z,96606.34
2022-11-06T15:34:04.326Z,96603.00
2022-11-06T15:36:37.730Z,96623.47
2022-11-06T15:39:26.801Z,96627.00
2022-11-06T15:41:53.564Z,96623.31
2022-11-06T15:44:22.338Z,96624.94
2022-11-06T15:46:57.392Z,96635.50
2022-11-06T15:49:25.415Z,96632.75
2022-11-06T15:51:57.918Z,96644.28
2022-11-06T15:54:38.301Z,96638.81
2022-11-06T15:57:19.354Z,96641.66
2022-11-06T15:59:46.272Z,96641.84
2022-11-06T16:02:22.706Z,96632.53
2022-11-06T16:04:50.172Z,96647.78
2022-11-06T16:07:18.840Z,96657.03
2022-11-06T16:09:46.606Z,96629.81
2022-11-06T16:12:15.614Z,96651.66
2022-11-06T16:14:44.331Z,96661.28
2022-11-06T16:17:25.170Z,96658.22
2022-11-06T16:19:52.214Z,96654.13
2022-11-06T16:22:21.114Z,96675.72
2022-11-06T16:24:56.396Z,96686.66
2022-11-06T16:27:24.605Z,96689.31
2022-11-06T16:29:57.896Z,96696.03
2022-11-06T16:32:27.283Z,96700.59
2022-11-06T16:34:55.297Z,96708.25
2022-11-06T16:37:27.744Z,96709.59
2022-11-06T16:39:55.979Z,96719.00
2022-11-06T16:42:22.635Z,96715.94
2022-11-06T16:44:51.068Z,96723.78
2022-11-06T16:47:19.694Z,96728.91
2022-11-06T16:49:53.547Z,96732.63
2022-11-06T16:52:33.934Z,96728.13
2022-11-06T16:55:00.765Z,96750.25
2022-11-06T16:57:49.822Z,96740.88
2022-11-06T17:00:21.401Z,96737.66
2022-11-06T17:03:01.897Z,96746.13
2022-11-06T17:05:33.592Z,96736.72
2022-11-06T17:08:09.136Z,96742.31
2022-11-06T17:10:37.053Z,96746.63
2022-11-06T17:13:26.979Z,96741.25
2022-11-06T17:15:59.759Z,96755.78
2022-11-06T17:18:30.320Z,96753.88
2022-11-06T17:20:57.953Z,96753.88
2022-11-06T17:23:25.896Z,96744.84
2022-11-06T17:25:55.762Z,96750.91
2022-11-06T17:28:22.885Z,96757.22
2022-11-06T17:30:50.106Z,96765.56
2022-11-06T17:33:17.146Z,96766.97
2022-11-06T17:35:47.190Z,96757.47
2022-11-06T17:38:14.565Z,96746.63
2022-11-06T17:40:42.578Z,96754.25
2022-11-06T17:43:09.959Z,96737.94
2022-11-06T17:45:38.194Z,96731.16
2022-11-06T17:48:05.602Z,96731.25
2022-11-06T17:50:52.273Z,96746.38
2022-11-06T17:53:19.069Z,96753.41
2022-11-06T17:55:45.704Z,96743.78
2022-11-06T17:58:12.695Z,96748.66
2022-11-06T18:00:39.727Z,96750.06
2022-11-06T18:03:07.508Z,96742.00
2022-11-06T18:05:41.481Z,96750.94
2022-11-06T18:08:12.353Z,96744.94
2022-11-06T18:10:39.643Z,96745.66
2022-11-06T18:13:07.199Z,96728.66
2022-11-06T18:15:35.163Z,96734.22
2022-11-06T18:18:02.128Z,96735.78
2022-11-06T18:20:28.805Z,96735.91
2022-11-06T18:22:55.629Z,96753.22
2022-11-06T18:25:22.261Z,96749.88
2022-11-06T18:27:48.995Z,96758.19
2022-11-06T18:30:15.745Z,96762.38
2022-11-06T18:32:42.472Z,96752.13
2022-11-06T18:35:09.449Z,96750.09
2022-11-06T18:37:36.147Z,96752.25
2022-11-06T18:40:03.350Z,96754.38
2022-11-06T18:42:30.217Z,96746.28
2022-11-06T18:44:56.860Z,96737.47
2022-11-06T18:47:23.646Z,96730.66
2022-11-06T18:49:50.458Z,96732.81
2022-11-06T18:52:32.438Z,96724.09
2022-11-06T18:55:01.023Z,96727.66
2022-11-06T18:57:30.195Z,96734.59
2022-11-06T18:59:56.963Z,96725.16
2022-11-06T19:02:23.894Z,96715.63
2022-11-06T19:04:50.814Z,96727.31
2022-11-06T19:07:17.549Z,96735.66
2022-11-06T19:09:44.406Z,96733.72
2022-11-06T19:12:11.029Z,96743.41
2022-11-06T19:14:37.832Z,96747.44
2022-11-06T19:17:04.819Z,96759.84
2022-11-06T19:19:32.119Z,96767.47
2022-11-06T19:21:58.922Z,96783.31
2022-11-06T19:24:25.650Z,96776.50
2022-11-06T19:26:52.456Z,96782.00
2022-11-06T19:29:19.188Z,96775.31
2022-11-06T19:31:46.318Z,96776.03
2022-11-06T19:34:13.395Z,96785.69
2022-11-06T19:36:40.154Z,96784.50
2022-11-06T19:39:07.467Z,96790.69
2022-11-06T19:41:34.432Z,96784.59
2022-11-06T19:44:01.236Z,96778.50
2022-11-06T19:46:34.037Z,96775.19
2022-11-06T19:49:03.778Z,96785.56
2022-11-06T19:51:30.934Z,96787.09
2022-11-06T19:53:57.662Z,96801.53
2022-11-06T19:56:24.422Z,96795.34
2022-11-06T19:58:51.662Z,96799.59
2022-11-06T20:01:19.604Z,96802.47
2022-11-06T20:03:46.632Z,96809.25
2022-11-06T20:06:14.038Z,96817.38
2022-11-06T20:08:40.811Z,96829.19
2022-11-06T20:11:12.949Z,96828.59
2022-11-06T20:13:43.325Z,96839.69
2022-11-06T20:16:12.574Z,96828.94
2022-11-06T20:18:39.529Z,96846.94
2022-11-06T20:21:08.626Z,96842.75
2022-11-06T20:23:36.297Z,96852.53
2022-11-06T20:26:04.735Z,96852.66
2022-11-06T20:28:32.287Z,96858.28
2022-11-06T20:30:59.157Z,96864.47
2022-11-06T20:33:26.385Z,96863.88
2022-11-06T20:35:53.153Z,96877.69
2022-11-06T20:38:19.856Z,96869.47
2022-11-06T20:40:46.658Z,96848.94
2022-11-06T20:43:13.575Z,96867.41
2022-11-06T20:45:40.676Z,96865.41
2022-11-06T20:48:07.987Z,96877.09
2022-11-06T20:50:35.009Z,96858.47
2022-11-06T20:53:01.779Z,96860.75
2022-11-06T20:55:29.113Z,96866.94
2022-11-06T20:57:55.850Z,96874.47
2022-11-06T21:00:22.657Z,96868.97
2022-11-06T21:02:49.516Z,96882.69
2022-11-06T21:05:16.370Z,96891.03
2022-11-06T21:07:43.053Z,96895.09
2022-11-06T21:10:12.687Z,96886.88
2022-11-06T21:12:39.491Z,96887.59
2022-11-06T21:15:06.880Z,96893.19
2022-11-06T21:17:33.596Z,96890.47
2022-11-06T21:20:00.296Z,96896.66
2022-11-06T21:22:27.127Z,96900.13
2022-11-06T21:24:53.778Z,96907.03
2022-11-06T21:27:20.541Z,96911.91
2022-11-06T21:29:47.438Z,96911.19
2022-11-06T21:32:14.167Z,96912.66
2022-11-06T21:34:40.834Z,96912.75
2022-11-06T21:37:07.561Z,96923.03
2022-11-06T21:39:36.430Z,96914.78
2022-11-06T21:42:04.992Z,96921.59
2022-11-06T21:44:32.145Z,96926.47
2022-11-06T21:46:58.882Z,96934.00
2022-11-06T21:49:25.605Z,96923.72
2022-11-06T21:51:52.360Z,96929.94
2022-11-06T21:54:37.667Z,96922.53
2022-11-06T21:57:04.439Z,96930.66
2022-11-06T21:59:31.265Z,96938.88
2022-11-06T22:01:58.169Z,96938.88
2022-11-06T22:04:25.052Z,96945.09
2022-11-06T22:06:52.501Z,96936.25
2022-11-06T22:09:24.416Z,96945.22
2022-11-06T22:11:52.201Z,96952.59
2022-11-06T22:14:18.857Z,96941.72
2022-11-06T22:16:47.134Z,96936.97
2022-11-06T22:19:15.380Z,96944.47
2022-11-06T22:21:42.384Z,96943.19
2022-11-06T22:24:11.312Z,96945.94
2022-11-06T22:26:38.029Z,96938.41
2022-11-06T22:29:11.373Z,96949.25
2022-11-06T22:31:38.054Z,96945.94
2022-11-06T22:34:04.813Z,96953.44
2022-11-06T22:36:32.022Z,96952.13
2022-11-06T22:38:59.975Z,96961.09
2022-11-06T22:41:26.812Z,96945.31
2022-11-06T22:43:58.777Z,96946.03
2022-11-06T22:46:26.943Z,96957.13
2022-11-06T22:48:54.016Z,96944.13
2022-11-06T22:51:23.266Z,96949.03
2022-11-06T22:53:50.571Z,96940.78
2022-11-06T22:56:17.618Z,96946.28
2022-11-06T22:58:44.461Z,96953.78
2022-11-06T23:01:11.601Z,96950.34
2022-11-06T23:03:40.173Z,96944.84
2022-11-06T23:06:08.689Z,96944.97
2022-11-06T23:08:37.062Z,96957.97
2022-11-06T23:11:12.519Z,96962.13
2022-11-06T23:13:39.798Z,96967.03
2022-11-06T23:16:14.483Z,96964.88
2022-11-06T23:18:41.486Z,96956.66
2022-11-06T23:21:15.841Z,96968.94
2022-11-06T23:23:43.556Z,96966.91
2022-11-06T23:26:12.086Z,96972.41
2022-11-06T23:28:38.814Z,96971.09
2022-11-06T23:31:07.278Z,96966.91
2022-11-06T23:33:34.382Z,96971.09
2022-11-06T23:36:08.892Z,96977.28
2022-11-06T23:38:36.927Z,96987.69
2022-11-06T23:41:28.851Z,96973.84
2022-11-06T23:43:56.173Z,96988.41
2022-11-06T23:46:29.141Z,96986.38
2022-11-06T23:48:56.426Z,96982.31
2022-11-06T23:51:24.053Z,96980.16
2022-11-06T23:53:51.223Z,96978.25
2022-11-06T23:56:17.933Z,96981.69
2022-11-06T23:58:45.647Z,96988.50
